首页
METAR-TAF:

METAR-TAF

机场 :

Boscobel Airport

Boscobel, 威斯康辛州, 美国

纬度: 43-09-22N, 经度: 090-40-39W, 海拔: 205米

当前天气观测

该预报发布于21分钟前的22:53 UTC
风速4节,风向
温度 27°C
湿度 39%
气压 1017 hPa
能見度: 16.1公里
天空无云

METAR: KOVS 142253Z AUTO 01004KT 10SM CLR 27/12 A3004 RMK AO2 SLP170 T02720117

时间: 18:14 (23:14 UTC)


TAF: 丢失

超过4000个机场的气象观测和天气预报(METAR&TAF报告)。

可查询的气象台以黄色和红色小点在地图上表示。

将鼠标移到小点上方,可查看气象台名称。

然后点击查看天气观测和预报。

如需切换地图:点击带黑十字的绿色按钮放大地图;点击带横线的绿色按钮缩小地图;或者点击绿色箭头查看邻近地区的地图。


METAR-TAF: